createdAt,value
2023-04-19T00:01:01.575Z,10.46
2023-04-19T00:03:30.468Z,10.37
2023-04-19T00:06:00.672Z,10.40
2023-04-19T00:08:27.833Z,10.38
2023-04-19T00:10:54.930Z,10.30
2023-04-19T00:13:21.968Z,10.17
2023-04-19T00:15:49.117Z,10.31
2023-04-19T00:18:16.229Z,10.29
2023-04-19T00:20:43.611Z,10.26
2023-04-19T00:23:10.696Z,10.20
2023-04-19T00:25:37.770Z,10.06
2023-04-19T00:28:05.112Z,10.38
2023-04-19T00:30:32.296Z,9.91
2023-04-19T00:32:59.363Z,10.06
2023-04-19T00:35:26.492Z,10.30
2023-04-19T00:37:53.520Z,10.22
2023-04-19T00:40:20.603Z,10.08
2023-04-19T00:42:47.676Z,10.19
2023-04-19T00:45:14.905Z,10.24
2023-04-19T00:47:42.029Z,10.19
2023-04-19T00:50:09.747Z,10.28
2023-04-19T00:52:36.925Z,10.29
2023-04-19T00:55:05.344Z,10.40
2023-04-19T00:57:32.441Z,10.32
2023-04-19T00:59:59.724Z,10.26
2023-04-19T01:02:28.408Z,10.30
2023-04-19T01:04:55.702Z,10.22
2023-04-19T01:07:22.800Z,10.12
2023-04-19T01:09:49.859Z,10.27
2023-04-19T01:12:16.916Z,10.33
2023-04-19T01:14:44.333Z,10.10
2023-04-19T01:17:13.299Z,10.09
2023-04-19T01:19:40.972Z,9.97
2023-04-19T01:22:08.589Z,10.06
2023-04-19T01:24:36.679Z,9.67
2023-04-19T01:27:04.001Z,10.16
2023-04-19T01:29:31.047Z,9.50
2023-04-19T01:31:58.053Z,9.90
2023-04-19T01:34:27.495Z,9.93
2023-04-19T01:36:54.591Z,9.38
2023-04-19T01:39:22.968Z,10.09
2023-04-19T01:41:49.940Z,9.70
2023-04-19T01:44:17.180Z,9.92
2023-04-19T01:46:44.463Z,9.60
2023-04-19T01:49:12.983Z,10.24
2023-04-19T01:51:40.389Z,9.87
2023-04-19T01:54:07.455Z,10.00
2023-04-19T01:56:34.488Z,9.56
2023-04-19T01:59:02.332Z,9.72
2023-04-19T02:01:30.834Z,9.72
2023-04-19T02:03:59.046Z,9.34
2023-04-19T02:06:26.972Z,9.72
2023-04-19T02:08:54.143Z,10.23
2023-04-19T02:11:21.219Z,9.49
2023-04-19T02:13:48.292Z,9.70
2023-04-19T02:16:15.373Z,9.50
2023-04-19T02:18:43.074Z,9.74
2023-04-19T02:21:11.234Z,9.99
2023-04-19T02:23:38.335Z,9.88
2023-04-19T02:26:05.702Z,9.18
2023-04-19T02:28:33.182Z,9.55
2023-04-19T02:31:04.599Z,9.36
2023-04-19T02:33:35.362Z,10.10
2023-04-19T02:36:02.630Z,9.77
2023-04-19T02:38:29.821Z,9.66
2023-04-19T02:40:56.873Z,9.83
2023-04-19T02:43:24.261Z,10.07
2023-04-19T02:45:51.426Z,9.95
2023-04-19T02:48:18.543Z,9.81
2023-04-19T02:50:45.592Z,10.01
2023-04-19T02:53:12.715Z,10.01
2023-04-19T02:55:40.010Z,9.80
2023-04-19T02:58:13.655Z,10.03
2023-04-19T03:00:49.809Z,9.91
2023-04-19T03:03:20.307Z,9.75
2023-04-19T03:05:47.504Z,9.94
2023-04-19T03:08:14.521Z,9.95
2023-04-19T03:10:41.769Z,9.99
2023-04-19T03:13:09.631Z,9.99
2023-04-19T03:15:36.726Z,9.99
2023-04-19T03:18:04.019Z,9.95
2023-04-19T03:20:31.457Z,9.67
2023-04-19T03:22:58.553Z,9.77
2023-04-19T03:25:26.005Z,9.66
2023-04-19T03:28:00.695Z,9.81
2023-04-19T03:30:47.689Z,9.67
2023-04-19T03:33:14.942Z,9.80
2023-04-19T03:35:44.045Z,9.89
2023-04-19T03:38:12.034Z,9.90
2023-04-19T03:40:39.201Z,9.81
2023-04-19T03:43:08.170Z,9.48
2023-04-19T03:45:35.425Z,9.73
2023-04-19T03:48:03.261Z,9.70
2023-04-19T03:50:31.061Z,9.59
2023-04-19T03:52:58.616Z,9.60
2023-04-19T03:55:25.774Z,9.61
2023-04-19T03:57:52.984Z,9.74
2023-04-19T04:00:29.283Z,9.56
2023-04-19T04:03:00.430Z,9.68
2023-04-19T04:05:28.724Z,9.57
2023-04-19T04:07:56.341Z,9.65
2023-04-19T04:10:23.596Z,9.69
2023-04-19T04:12:51.416Z,9.40
2023-04-19T04:15:25.056Z,9.56
2023-04-19T04:17:54.023Z,9.48
2023-04-19T04:20:21.452Z,9.57
2023-04-19T04:22:50.536Z,9.52
2023-04-19T04:25:22.389Z,9.73
2023-04-19T04:27:52.276Z,9.62
2023-04-19T04:30:21.233Z,9.57
2023-04-19T04:32:51.228Z,9.57
2023-04-19T04:35:18.626Z,9.55
2023-04-19T04:37:56.450Z,9.28
2023-04-19T04:40:23.542Z,9.62
2023-04-19T04:42:52.887Z,9.53
2023-04-19T04:45:20.133Z,9.83
2023-04-19T04:47:49.701Z,9.74
2023-04-19T04:50:17.058Z,9.58
2023-04-19T04:52:44.439Z,9.67
2023-04-19T04:55:17.401Z,9.53
2023-04-19T04:57:45.138Z,9.72
2023-04-19T05:00:18.241Z,9.52
2023-04-19T05:02:54.488Z,9.59
2023-04-19T05:05:23.171Z,9.71
2023-04-19T05:07:50.339Z,9.46
2023-04-19T05:10:17.487Z,9.38
2023-04-19T05:12:46.234Z,9.62
2023-04-19T05:15:13.304Z,9.69
2023-04-19T05:17:45.253Z,9.61
2023-04-19T05:20:13.937Z,9.87
2023-04-19T05:22:41.764Z,9.89
2023-04-19T05:25:10.824Z,9.87
2023-04-19T05:27:38.611Z,9.75
2023-04-19T05:30:06.607Z,9.93
2023-04-19T05:32:35.420Z,9.83
2023-04-19T05:35:05.062Z,9.80
2023-04-19T05:37:32.978Z,9.80
2023-04-19T05:40:00.134Z,9.82
2023-04-19T05:42:27.550Z,9.73
2023-04-19T05:44:54.557Z,9.88
2023-04-19T05:47:22.807Z,9.89
2023-04-19T05:50:14.979Z,10.00
2023-04-19T05:52:47.380Z,9.85
2023-04-19T05:55:14.549Z,9.74
2023-04-19T05:57:44.904Z,9.97
2023-04-19T06:00:12.667Z,9.77
2023-04-19T06:02:59.855Z,9.99
2023-04-19T06:05:27.345Z,10.02
2023-04-19T06:08:02.866Z,9.96
2023-04-19T06:10:40.270Z,10.07
2023-04-19T06:13:17.479Z,10.12
2023-04-19T06:15:44.620Z,10.19
2023-04-19T06:18:19.823Z,10.23
2023-04-19T06:20:47.370Z,10.24
2023-04-19T06:23:14.891Z,10.29
2023-04-19T06:25:42.533Z,10.54
2023-04-19T06:28:09.552Z,10.44
2023-04-19T06:30:36.613Z,10.20
2023-04-19T06:33:03.760Z,10.53
2023-04-19T06:35:31.610Z,10.35
2023-04-19T06:38:01.728Z,10.35
2023-04-19T06:40:31.681Z,10.27
2023-04-19T06:42:58.686Z,10.31
2023-04-19T06:45:26.069Z,10.25
2023-04-19T06:47:53.255Z,10.43
2023-04-19T06:50:20.653Z,10.11
2023-04-19T06:52:47.719Z,10.63
2023-04-19T06:55:14.767Z,10.72
2023-04-19T06:57:42.778Z,10.54
2023-04-19T07:00:10.849Z,11.02
2023-04-19T07:02:38.011Z,10.82
2023-04-19T07:05:05.688Z,10.90
2023-04-19T07:07:33.368Z,11.19
2023-04-19T07:10:00.364Z,11.32
2023-04-19T07:12:27.785Z,11.24
2023-04-19T07:14:57.143Z,10.83
2023-04-19T07:17:24.318Z,10.54
2023-04-19T07:19:51.398Z,10.79
2023-04-19T07:22:18.429Z,10.77
2023-04-19T07:24:45.500Z,10.98
2023-04-19T07:27:14.224Z,10.67
2023-04-19T07:29:41.360Z,10.97
2023-04-19T07:32:08.614Z,10.61
2023-04-19T07:34:37.980Z,11.17
2023-04-19T07:37:05.258Z,11.29
2023-04-19T07:39:32.869Z,11.55
2023-04-19T07:42:01.626Z,11.80
2023-04-19T07:44:28.633Z,12.09
2023-04-19T07:46:55.906Z,12.17
2023-04-19T07:49:22.909Z,12.25
2023-04-19T07:51:49.919Z,12.40
2023-04-19T07:54:18.044Z,12.15
2023-04-19T07:56:45.914Z,12.40
2023-04-19T07:59:12.931Z,12.70
2023-04-19T08:01:40.071Z,12.58
2023-04-19T08:04:08.113Z,12.99
2023-04-19T08:06:37.776Z,12.97
2023-04-19T08:09:05.025Z,12.91
2023-04-19T08:11:32.060Z,12.95
2023-04-19T08:14:09.370Z,12.88
2023-04-19T08:17:19.273Z,12.98
2023-04-19T08:19:28.950Z,12.84
2023-04-19T08:21:56.641Z,12.63
2023-04-19T08:24:23.629Z,12.65
2023-04-19T08:26:53.553Z,12.81
2023-04-19T08:29:22.081Z,12.94
2023-04-19T08:31:49.228Z,12.61
2023-04-19T08:34:16.286Z,12.52
2023-04-19T08:36:51.913Z,12.57
2023-04-19T08:39:32.510Z,12.56
2023-04-19T08:42:18.427Z,12.62
2023-04-19T08:45:17.170Z,12.24
2023-04-19T08:47:58.832Z,12.29
2023-04-19T08:50:34.604Z,12.48
2023-04-19T08:55:59.276Z,12.36
2023-04-19T09:01:06.917Z,12.63
2023-04-19T09:03:44.038Z,12.55
2023-04-19T09:06:18.776Z,12.33
2023-04-19T09:08:45.998Z,12.80
2023-04-19T09:11:13.104Z,12.68
2023-04-19T09:13:42.381Z,12.33
2023-04-19T09:16:23.878Z,12.42
2023-04-19T09:19:02.448Z,12.45
2023-04-19T09:21:36.158Z,12.44
2023-04-19T09:24:03.846Z,12.55
2023-04-19T09:26:32.070Z,12.40
2023-04-19T09:29:02.262Z,12.74
2023-04-19T09:31:48.075Z,12.83
2023-04-19T09:34:19.269Z,12.95
2023-04-19T09:36:46.906Z,12.86
2023-04-19T09:39:14.603Z,13.03
2023-04-19T09:41:54.907Z,13.27
2023-04-19T09:45:01.632Z,13.26
2023-04-19T09:47:26.502Z,13.36
2023-04-19T09:50:21.274Z,13.54
2023-04-19T09:52:52.174Z,13.44
2023-04-19T09:57:49.661Z,13.73
2023-04-19T10:00:16.996Z,13.55
2023-04-19T10:02:48.683Z,13.63
2023-04-19T10:05:21.227Z,13.64
2023-04-19T10:07:54.891Z,14.04
2023-04-19T10:10:40.365Z,13.73
2023-04-19T10:15:51.375Z,13.94
2023-04-19T10:18:21.507Z,13.86
2023-04-19T10:21:01.441Z,13.72
2023-04-19T10:23:29.226Z,13.70
2023-04-19T10:25:58.232Z,13.65
2023-04-19T10:28:28.649Z,13.75
2023-04-19T10:31:02.564Z,13.90
2023-04-19T10:33:31.984Z,13.58
2023-04-19T10:35:59.847Z,13.83
2023-04-19T10:38:47.769Z,13.96
2023-04-19T10:41:17.904Z,14.14
2023-04-19T10:43:54.949Z,14.10
2023-04-19T10:46:22.053Z,13.92
2023-04-19T10:48:59.065Z,13.16
2023-04-19T10:51:36.454Z,13.58
2023-04-19T10:54:08.242Z,13.59
2023-04-19T10:56:35.510Z,13.90
2023-04-19T10:59:08.154Z,14.06
2023-04-19T11:01:39.995Z,13.96
2023-04-19T11:04:11.748Z,14.25
2023-04-19T11:06:54.155Z,13.92
2023-04-19T11:09:25.520Z,13.47
2023-04-19T11:11:54.230Z,13.38
2023-04-19T11:14:21.594Z,13.72
2023-04-19T11:16:48.662Z,13.48
2023-04-19T11:19:16.844Z,13.45
2023-04-19T11:21:48.224Z,13.54
2023-04-19T11:24:18.921Z,13.63
2023-04-19T11:26:47.014Z,13.86
2023-04-19T11:29:14.563Z,13.89
2023-04-19T11:31:46.389Z,13.93
2023-04-19T11:34:13.683Z,14.03
2023-04-19T11:36:51.655Z,14.25
2023-04-19T11:39:19.469Z,14.07
2023-04-19T11:41:47.296Z,14.00
2023-04-19T11:44:20.380Z,13.55
2023-04-19T11:47:05.134Z,13.74
2023-04-19T11:49:34.051Z,13.84
2023-04-19T11:52:05.272Z,13.82
2023-04-19T11:54:33.598Z,13.63
2023-04-19T11:57:04.540Z,13.66
2023-04-19T11:59:33.254Z,13.62
2023-04-19T12:02:06.941Z,13.53
2023-04-19T12:04:35.023Z,13.51
2023-04-19T12:07:04.157Z,13.76
2023-04-19T12:09:34.882Z,13.75
2023-04-19T12:12:02.191Z,13.58
2023-04-19T12:14:30.434Z,13.62
2023-04-19T12:17:08.926Z,13.66
2023-04-19T12:19:44.217Z,13.64
2023-04-19T12:22:17.285Z,13.93
2023-04-19T12:24:44.427Z,13.96
2023-04-19T12:27:11.887Z,13.96
2023-04-19T12:29:39.456Z,14.07
2023-04-19T12:32:06.952Z,13.89
2023-04-19T12:34:34.014Z,13.45
2023-04-19T12:37:01.412Z,13.77
2023-04-19T12:39:28.896Z,14.02
2023-04-19T12:41:56.786Z,14.04
2023-04-19T12:44:23.950Z,14.09
2023-04-19T12:46:51.040Z,14.24
2023-04-19T12:49:20.008Z,14.24
2023-04-19T12:51:47.586Z,14.40
2023-04-19T12:54:15.622Z,14.63
2023-04-19T12:56:42.877Z,14.47
2023-04-19T12:59:09.965Z,14.52
2023-04-19T13:01:37.098Z,14.33
2023-04-19T13:04:04.470Z,14.45
2023-04-19T13:06:31.672Z,14.50
2023-04-19T13:09:01.134Z,14.29
2023-04-19T13:11:28.708Z,14.51
2023-04-19T13:13:55.774Z,14.73
2023-04-19T13:16:23.093Z,14.84
2023-04-19T13:18:52.302Z,14.85
2023-04-19T13:21:19.396Z,14.67
2023-04-19T13:23:46.472Z,14.44
2023-04-19T13:26:14.000Z,14.03
2023-04-19T13:28:42.238Z,13.94
2023-04-19T13:31:09.274Z,14.47
2023-04-19T13:33:36.731Z,14.23
2023-04-19T13:36:04.095Z,13.91
2023-04-19T13:38:31.364Z,13.99
2023-04-19T13:40:59.349Z,14.05
2023-04-19T13:43:26.560Z,13.83
2023-04-19T13:45:53.962Z,14.24
2023-04-19T13:48:21.414Z,14.39
2023-04-19T13:50:50.912Z,14.09
2023-04-19T13:56:09.111Z,14.03
2023-04-19T13:58:36.596Z,14.23
2023-04-19T14:01:03.718Z,14.19
2023-04-19T14:03:31.378Z,13.91
2023-04-19T14:05:58.683Z,13.91
2023-04-19T14:08:25.760Z,14.21
2023-04-19T14:10:52.864Z,14.32
2023-04-19T14:13:19.886Z,14.27
2023-04-19T14:15:46.958Z,14.13
2023-04-19T14:18:14.027Z,14.09
2023-04-19T14:20:41.087Z,14.00
2023-04-19T14:23:08.165Z,14.03
2023-04-19T14:25:36.684Z,13.93
2023-04-19T14:28:03.835Z,14.47
2023-04-19T14:30:31.333Z,14.21
2023-04-19T14:32:58.550Z,14.50
2023-04-19T14:35:25.723Z,14.23
2023-04-19T14:37:52.790Z,13.99
2023-04-19T14:40:20.500Z,13.92
2023-04-19T14:42:47.503Z,13.99
2023-04-19T14:45:14.615Z,13.86
2023-04-19T14:47:41.680Z,13.81
2023-04-19T14:50:09.322Z,14.00
2023-04-19T14:52:36.389Z,13.97
2023-04-19T14:55:03.995Z,13.62
2023-04-19T14:57:31.068Z,13.52
2023-04-19T14:59:58.201Z,13.72
2023-04-19T15:02:25.458Z,13.44
2023-04-19T15:04:53.317Z,13.49
2023-04-19T15:07:21.452Z,13.37
2023-04-19T15:09:48.556Z,13.49
2023-04-19T15:12:15.628Z,13.58
2023-04-19T15:14:42.659Z,13.83
2023-04-19T15:17:09.737Z,13.86
2023-04-19T15:19:38.689Z,14.02
2023-04-19T15:22:06.245Z,14.28
2023-04-19T15:24:36.175Z,14.19
2023-04-19T15:27:03.977Z,14.92
2023-04-19T15:29:31.002Z,15.98
2023-04-19T15:31:58.114Z,16.98
2023-04-19T15:34:25.339Z,17.63
2023-04-19T15:36:52.405Z,17.04
2023-04-19T15:39:19.516Z,17.12
2023-04-19T15:41:46.551Z,17.63
2023-04-19T15:44:13.625Z,18.04
2023-04-19T15:46:40.756Z,18.10
2023-04-19T15:49:07.886Z,17.87
2023-04-19T15:51:34.958Z,18.12
2023-04-19T15:54:01.935Z,18.22
2023-04-19T15:56:28.950Z,18.72
2023-04-19T15:58:55.962Z,18.98
2023-04-19T16:01:23.229Z,19.77
2023-04-19T16:03:50.456Z,19.45
2023-04-19T16:06:17.687Z,18.42
2023-04-19T16:08:44.735Z,17.94
2023-04-19T16:11:11.773Z,17.41
2023-04-19T16:13:38.955Z,17.23
2023-04-19T16:16:06.503Z,16.07
2023-04-19T16:18:33.582Z,17.94
2023-04-19T16:21:00.654Z,18.10
2023-04-19T16:23:27.696Z,18.38
2023-04-19T16:25:56.654Z,17.40
2023-04-19T16:28:24.010Z,17.21
2023-04-19T16:30:51.003Z,19.09
2023-04-19T16:33:18.150Z,18.97
2023-04-19T16:35:45.357Z,17.74
2023-04-19T16:38:12.399Z,17.88
2023-04-19T16:40:39.466Z,17.06
2023-04-19T16:43:06.621Z,15.64
2023-04-19T16:45:33.946Z,14.21
2023-04-19T16:48:01.094Z,13.64
2023-04-19T16:50:28.284Z,15.70
2023-04-19T16:52:55.300Z,17.58
2023-04-19T16:55:22.453Z,18.93
2023-04-19T16:57:50.896Z,18.37
2023-04-19T17:00:18.187Z,19.13
2023-04-19T17:02:45.365Z,20.29
2023-04-19T17:05:13.765Z,20.02
2023-04-19T17:07:40.946Z,19.63
2023-04-19T17:10:08.573Z,19.20
2023-04-19T17:12:35.675Z,18.59
2023-04-19T17:15:03.181Z,18.02
2023-04-19T17:17:30.469Z,18.22
2023-04-19T17:19:57.673Z,18.70
2023-04-19T17:22:24.947Z,17.81
2023-04-19T17:24:53.975Z,16.06
2023-04-19T17:27:21.109Z,14.69
2023-04-19T17:29:48.119Z,13.78
2023-04-19T17:32:15.469Z,13.47
2023-04-19T17:34:42.556Z,12.93
2023-04-19T17:37:09.606Z,12.81
2023-04-19T17:39:36.736Z,12.45
2023-04-19T17:42:03.846Z,12.25
2023-04-19T17:44:30.884Z,12.08
2023-04-19T17:46:58.201Z,11.80
2023-04-19T17:49:26.940Z,11.93
2023-04-19T17:51:55.642Z,11.52
2023-04-19T17:54:22.888Z,11.62
2023-04-19T17:56:50.223Z,11.38
2023-04-19T17:59:18.551Z,11.38
2023-04-19T18:01:45.733Z,11.39
2023-04-19T18:04:17.378Z,11.38
2023-04-19T18:06:47.063Z,11.26
2023-04-19T18:09:14.715Z,11.03
2023-04-19T18:11:42.024Z,10.99
2023-04-19T18:14:09.041Z,10.91
2023-04-19T18:16:36.219Z,10.66
2023-04-19T18:19:03.275Z,10.78
2023-04-19T18:21:30.440Z,10.74
2023-04-19T18:23:57.465Z,10.64
2023-04-19T18:26:24.630Z,10.59
2023-04-19T18:28:51.661Z,10.51
2023-04-19T18:31:18.668Z,10.32
2023-04-19T18:33:45.770Z,10.27
2023-04-19T18:36:12.804Z,10.34
2023-04-19T18:38:39.821Z,10.16
2023-04-19T18:41:06.906Z,10.06
2023-04-19T18:43:33.904Z,10.20
2023-04-19T18:46:01.319Z,10.02
2023-04-19T18:48:29.775Z,9.82
2023-04-19T18:50:57.318Z,9.89
2023-04-19T18:53:27.623Z,9.93
2023-04-19T18:55:57.651Z,9.87
2023-04-19T18:58:26.779Z,9.67
2023-04-19T19:00:54.708Z,9.78
2023-04-19T19:05:54.769Z,9.66
2023-04-19T19:08:21.981Z,9.35
2023-04-19T19:11:14.247Z,9.38
2023-04-19T19:13:36.142Z,9.44
2023-04-19T19:16:05.355Z,9.29
2023-04-19T19:18:32.544Z,9.41
2023-04-19T19:21:03.070Z,9.20
2023-04-19T19:23:35.718Z,9.35
2023-04-19T19:26:04.983Z,9.04
2023-04-19T19:28:31.971Z,9.10
2023-04-19T19:30:59.023Z,8.95
2023-04-19T19:33:28.661Z,9.18
2023-04-19T19:35:55.972Z,8.97
2023-04-19T19:38:23.023Z,9.00
2023-04-19T19:43:19.927Z,8.90
2023-04-19T19:45:46.947Z,8.89
2023-04-19T19:48:14.374Z,8.88
2023-04-19T19:53:11.477Z,8.75
2023-04-19T19:55:38.523Z,8.75
2023-04-19T20:03:06.673Z,8.59
2023-04-19T20:05:34.235Z,8.61
2023-04-19T20:08:11.697Z,8.47
2023-04-19T20:10:41.437Z,8.42
2023-04-19T20:13:08.562Z,8.49
2023-04-19T20:15:37.063Z,8.46
2023-04-19T20:18:05.172Z,8.41
2023-04-19T20:20:32.273Z,8.29
2023-04-19T20:22:59.330Z,8.29
2023-04-19T20:25:26.765Z,8.18
2023-04-19T20:27:54.261Z,8.15
2023-04-19T20:30:21.394Z,7.86
2023-04-19T20:32:49.998Z,8.01
2023-04-19T20:35:17.410Z,7.93
2023-04-19T20:37:44.469Z,7.83
2023-04-19T20:40:14.372Z,7.97
2023-04-19T20:42:42.306Z,7.61
2023-04-19T20:45:10.508Z,7.90
2023-04-19T20:47:38.367Z,7.89
2023-04-19T20:50:06.883Z,7.76
2023-04-19T20:52:34.733Z,7.80
2023-04-19T20:55:01.911Z,7.61
2023-04-19T20:57:29.005Z,7.65
2023-04-19T20:59:56.030Z,7.63
2023-04-19T21:02:23.120Z,7.55
2023-04-19T21:04:50.232Z,7.35
2023-04-19T21:07:17.243Z,7.54
2023-04-19T21:09:44.294Z,7.35
2023-04-19T21:12:11.455Z,7.41
2023-04-19T21:14:38.537Z,7.37
2023-04-19T21:17:05.921Z,7.42
2023-04-19T21:19:32.925Z,7.37
2023-04-19T21:21:59.926Z,7.18
2023-04-19T21:24:26.928Z,7.29
2023-04-19T21:26:53.984Z,7.23
2023-04-19T21:29:21.030Z,7.24
2023-04-19T21:31:48.153Z,7.31
2023-04-19T21:34:15.327Z,7.20
2023-04-19T21:36:42.365Z,7.31
2023-04-19T21:39:10.138Z,7.15
2023-04-19T21:41:38.005Z,7.27
2023-04-19T21:44:05.082Z,7.20
2023-04-19T21:46:33.282Z,7.12
2023-04-19T21:49:00.357Z,7.10
2023-04-19T21:51:27.552Z,6.94
2023-04-19T21:53:54.561Z,6.72
2023-04-19T21:56:21.611Z,6.59
2023-04-19T21:58:48.662Z,6.32
2023-04-19T22:01:16.682Z,6.26
2023-04-19T22:03:45.755Z,6.19
2023-04-19T22:06:13.852Z,6.32
2023-04-19T22:08:42.322Z,6.24
2023-04-19T22:11:09.312Z,6.21
2023-04-19T22:13:37.322Z,6.13
2023-04-19T22:16:04.840Z,5.99
2023-04-19T22:18:34.099Z,5.90
2023-04-19T22:21:01.302Z,5.84
2023-04-19T22:23:28.322Z,5.71
2023-04-19T22:25:55.349Z,5.60
2023-04-19T22:28:22.431Z,5.65
2023-04-19T22:30:51.160Z,5.55
2023-04-19T22:33:19.043Z,5.39
2023-04-19T22:35:46.205Z,5.36
2023-04-19T22:38:13.367Z,5.45
2023-04-19T22:40:40.562Z,5.44
2023-04-19T22:43:07.564Z,5.34
2023-04-19T22:45:34.601Z,5.30
2023-04-19T22:48:03.051Z,5.41
2023-04-19T22:50:30.155Z,5.46
2023-04-19T22:52:57.193Z,5.24
2023-04-19T22:55:24.360Z,5.14
2023-04-19T22:57:51.418Z,5.27
2023-04-19T23:00:18.828Z,5.21
2023-04-19T23:02:45.992Z,5.17
2023-04-19T23:05:13.420Z,5.05
2023-04-19T23:07:41.915Z,4.79
2023-04-19T23:10:10.193Z,5.07
2023-04-19T23:12:38.763Z,4.84
2023-04-19T23:15:06.754Z,4.98
2023-04-19T23:17:34.472Z,4.88
2023-04-19T23:20:01.490Z,4.68
2023-04-19T23:22:28.622Z,4.85
2023-04-19T23:24:55.980Z,4.77
2023-04-19T23:27:22.975Z,4.75
2023-04-19T23:29:50.139Z,4.71
2023-04-19T23:32:18.153Z,4.66
2023-04-19T23:34:45.278Z,4.70
2023-04-19T23:37:13.661Z,4.68
2023-04-19T23:39:40.937Z,4.64
2023-04-19T23:42:07.981Z,4.92
2023-04-19T23:44:35.362Z,4.92
2023-04-19T23:47:05.023Z,4.98
2023-04-19T23:49:32.291Z,5.01
2023-04-19T23:51:59.480Z,4.80
2023-04-19T23:54:26.658Z,4.74
2023-04-19T23:56:54.269Z,4.94
2023-04-19T23:59:21.252Z,4.80
